sensor_id;sensor_type;location;lat;lon;timestamp;pressure;altitude;pressure_sealevel;temperature;humidity
25238;BME280;13185;50.872;5.306;2023-04-20T00:01:36;101768.47;;;8.33;48.16
25238;BME280;13185;50.872;5.306;2023-04-20T00:04:02;101766.00;;;8.28;48.34
25238;BME280;13185;50.872;5.306;2023-04-20T00:06:27;101773.28;;;8.25;48.25
25238;BME280;13185;50.872;5.306;2023-04-20T00:08:54;101763.66;;;8.21;48.40
25238;BME280;13185;50.872;5.306;2023-04-20T00:11:20;101760.91;;;8.22;48.50
25238;BME280;13185;50.872;5.306;2023-04-20T00:13:45;101759.09;;;8.23;48.74
25238;BME280;13185;50.872;5.306;2023-04-20T00:16:11;101761.84;;;8.21;48.65
25238;BME280;13185;50.872;5.306;2023-04-20T00:18:36;101751.28;;;8.18;48.52
25238;BME280;13185;50.872;5.306;2023-04-20T00:21:02;101753.09;;;8.18;48.68
25238;BME280;13185;50.872;5.306;2023-04-20T00:23:27;101752.47;;;8.11;48.74
25238;BME280;13185;50.872;5.306;2023-04-20T00:25:53;101749.13;;;8.06;48.53
25238;BME280;13185;50.872;5.306;2023-04-20T00:28:18;101753.66;;;8.04;48.64
25238;BME280;13185;50.872;5.306;2023-04-20T00:30:44;101754.69;;;8.00;49.04
25238;BME280;13185;50.872;5.306;2023-04-20T00:33:09;101738.84;;;7.95;48.86
25238;BME280;13185;50.872;5.306;2023-04-20T00:35:35;101743.41;;;7.93;48.79
25238;BME280;13185;50.872;5.306;2023-04-20T00:38:00;101737.22;;;7.91;48.42
25238;BME280;13185;50.872;5.306;2023-04-20T00:40:26;101737.34;;;7.88;48.58
25238;BME280;13185;50.872;5.306;2023-04-20T00:42:51;101734.81;;;7.85;48.58
25238;BME280;13185;50.872;5.306;2023-04-20T00:45:17;101727.03;;;7.79;48.50
25238;BME280;13185;50.872;5.306;2023-04-20T00:47:42;101730.75;;;7.75;48.44
25238;BME280;13185;50.872;5.306;2023-04-20T00:50:08;101728.97;;;7.75;48.57
25238;BME280;13185;50.872;5.306;2023-04-20T00:52:37;101721.00;;;7.74;48.73
25238;BME280;13185;50.872;5.306;2023-04-20T00:55:04;101716.69;;;7.71;48.71
25238;BME280;13185;50.872;5.306;2023-04-20T00:57:30;101727.38;;;7.70;48.85
25238;BME280;13185;50.872;5.306;2023-04-20T00:59:59;101720.38;;;7.67;48.97
25238;BME280;13185;50.872;5.306;2023-04-20T01:02:25;101720.50;;;7.64;48.80
25238;BME280;13185;50.872;5.306;2023-04-20T01:04:52;101714.47;;;7.59;48.88
25238;BME280;13185;50.872;5.306;2023-04-20T01:07:18;101711.13;;;7.54;48.69
25238;BME280;13185;50.872;5.306;2023-04-20T01:09:43;101711.19;;;7.52;49.05
25238;BME280;13185;50.872;5.306;2023-04-20T01:12:09;101706.00;;;7.48;48.99
25238;BME280;13185;50.872;5.306;2023-04-20T01:14:36;101715.00;;;7.45;49.00
25238;BME280;13185;50.872;5.306;2023-04-20T01:17:01;101702.66;;;7.43;49.12
25238;BME280;13185;50.872;5.306;2023-04-20T01:19:31;101708.09;;;7.40;49.03
25238;BME280;13185;50.872;5.306;2023-04-20T01:21:56;101701.88;;;7.39;49.11
25238;BME280;13185;50.872;5.306;2023-04-20T01:24:22;101698.47;;;7.36;48.98
25238;BME280;13185;50.872;5.306;2023-04-20T01:26:47;101689.72;;;7.32;49.04
25238;BME280;13185;50.872;5.306;2023-04-20T01:29:13;101687.28;;;7.26;49.08
25238;BME280;13185;50.872;5.306;2023-04-20T01:31:38;101691.06;;;7.20;49.14
25238;BME280;13185;50.872;5.306;2023-04-20T01:34:04;101683.25;;;7.14;49.29
25238;BME280;13185;50.872;5.306;2023-04-20T01:36:29;101682.47;;;7.12;49.17
25238;BME280;13185;50.872;5.306;2023-04-20T01:38:55;101672.72;;;7.11;49.27
25238;BME280;13185;50.872;5.306;2023-04-20T01:41:20;101671.91;;;7.09;49.76
25238;BME280;13185;50.872;5.306;2023-04-20T01:43:47;101670.34;;;7.04;49.76
25238;BME280;13185;50.872;5.306;2023-04-20T01:46:12;101669.59;;;7.00;49.75
25238;BME280;13185;50.872;5.306;2023-04-20T01:48:38;101664.31;;;6.99;49.82
25238;BME280;13185;50.872;5.306;2023-04-20T01:51:04;101667.13;;;6.94;49.87
25238;BME280;13185;50.872;5.306;2023-04-20T01:53:29;101661.00;;;6.92;49.97
25238;BME280;13185;50.872;5.306;2023-04-20T01:55:55;101654.03;;;6.88;50.09
25238;BME280;13185;50.872;5.306;2023-04-20T01:58:21;101650.66;;;6.83;50.06
25238;BME280;13185;50.872;5.306;2023-04-20T02:00:47;101649.84;;;6.81;50.16
25238;BME280;13185;50.872;5.306;2023-04-20T02:03:12;101654.38;;;6.79;50.27
25238;BME280;13185;50.872;5.306;2023-04-20T02:05:37;101650.88;;;6.77;50.27
25238;BME280;13185;50.872;5.306;2023-04-20T02:08:03;101655.41;;;6.75;49.88
25238;BME280;13185;50.872;5.306;2023-04-20T02:10:30;101654.59;;;6.73;50.13
25238;BME280;13185;50.872;5.306;2023-04-20T02:12:55;101645.84;;;6.69;50.13
25238;BME280;13185;50.872;5.306;2023-04-20T02:15:21;101645.03;;;6.67;49.75
25238;BME280;13185;50.872;5.306;2023-04-20T02:17:46;101640.50;;;6.69;49.73
25238;BME280;13185;50.872;5.306;2023-04-20T02:20:17;101637.72;;;6.72;49.42
25238;BME280;13185;50.872;5.306;2023-04-20T02:22:45;101639.59;;;6.70;49.19
25238;BME280;13185;50.872;5.306;2023-04-20T02:25:11;101629.84;;;6.69;49.22
25238;BME280;13185;50.872;5.306;2023-04-20T02:27:37;101632.66;;;6.64;49.04
25238;BME280;13185;50.872;5.306;2023-04-20T02:30:03;101621.13;;;6.64;48.76
25238;BME280;13185;50.872;5.306;2023-04-20T02:32:30;101626.41;;;6.65;49.00
25238;BME280;13185;50.872;5.306;2023-04-20T02:34:56;101626.53;;;6.62;48.83
25238;BME280;13185;50.872;5.306;2023-04-20T02:37:24;101625.84;;;6.57;48.89
25238;BME280;13185;50.872;5.306;2023-04-20T02:39:49;101624.03;;;6.58;48.96
25238;BME280;13185;50.872;5.306;2023-04-20T02:42:16;101622.25;;;6.58;49.07
25238;BME280;13185;50.872;5.306;2023-04-20T02:44:42;101611.63;;;6.57;49.21
25238;BME280;13185;50.872;5.306;2023-04-20T02:47:08;101618.84;;;6.53;49.02
25238;BME280;13185;50.872;5.306;2023-04-20T02:49:33;101615.44;;;6.50;48.76
25238;BME280;13185;50.872;5.306;2023-04-20T02:51:59;101614.50;;;6.51;48.67
25238;BME280;13185;50.872;5.306;2023-04-20T02:54:25;101617.25;;;6.49;48.56
25238;BME280;13185;50.872;5.306;2023-04-20T02:56:51;101608.31;;;6.50;48.68
25238;BME280;13185;50.872;5.306;2023-04-20T02:59:16;101610.97;;;6.50;48.25
25238;BME280;13185;50.872;5.306;2023-04-20T03:01:49;101613.59;;;6.52;48.35
25238;BME280;13185;50.872;5.306;2023-04-20T03:04:18;101601.19;;;6.51;48.45
25238;BME280;13185;50.872;5.306;2023-04-20T03:07:07;101604.72;;;6.51;48.13
25238;BME280;13185;50.872;5.306;2023-04-20T03:09:36;101603.72;;;6.54;48.17
25238;BME280;13185;50.872;5.306;2023-04-20T03:12:21;101599.13;;;6.59;48.35
25238;BME280;13185;50.872;5.306;2023-04-20T03:15:11;101599.00;;;6.62;48.52
25238;BME280;13185;50.872;5.306;2023-04-20T03:17:51;101588.34;;;6.62;48.14
25238;BME280;13185;50.872;5.306;2023-04-20T03:20:17;101592.81;;;6.61;48.19
25238;BME280;13185;50.872;5.306;2023-04-20T03:22:43;101586.66;;;6.59;48.37
25238;BME280;13185;50.872;5.306;2023-04-20T03:25:08;101573.44;;;6.56;48.46
25238;BME280;13185;50.872;5.306;2023-04-20T03:27:51;101574.53;;;6.51;48.33
25238;BME280;13185;50.872;5.306;2023-04-20T03:30:17;101570.25;;;6.47;48.37
25238;BME280;13185;50.872;5.306;2023-04-20T03:32:47;101574.06;;;6.40;48.33
25238;BME280;13185;50.872;5.306;2023-04-20T03:35:12;101556.44;;;6.35;48.21
25238;BME280;13185;50.872;5.306;2023-04-20T03:37:39;101546.69;;;6.34;48.21
25238;BME280;13185;50.872;5.306;2023-04-20T03:40:05;101557.47;;;6.31;48.31
25238;BME280;13185;50.872;5.306;2023-04-20T03:42:31;101555.78;;;6.29;48.42
25238;BME280;13185;50.872;5.306;2023-04-20T03:44:57;101547.06;;;6.25;48.40
25238;BME280;13185;50.872;5.306;2023-04-20T03:47:22;101540.88;;;6.23;48.47
25238;BME280;13185;50.872;5.306;2023-04-20T03:49:49;101536.44;;;6.24;48.47
25238;BME280;13185;50.872;5.306;2023-04-20T03:52:14;101538.41;;;6.19;48.34
25238;BME280;13185;50.872;5.306;2023-04-20T03:54:40;101542.94;;;6.17;48.53
25238;BME280;13185;50.872;5.306;2023-04-20T03:57:05;101537.47;;;6.20;48.80
25238;BME280;13185;50.872;5.306;2023-04-20T03:59:31;101532.97;;;6.22;48.82
25238;BME280;13185;50.872;5.306;2023-04-20T04:01:57;101525.84;;;6.22;48.99
25238;BME280;13185;50.872;5.306;2023-04-20T04:04:24;101523.91;;;6.27;48.81
25238;BME280;13185;50.872;5.306;2023-04-20T04:06:50;101531.06;;;6.25;48.71
25238;BME280;13185;50.872;5.306;2023-04-20T04:09:16;101531.97;;;6.24;48.90
25238;BME280;13185;50.872;5.306;2023-04-20T04:11:41;101538.03;;;6.29;49.07
25238;BME280;13185;50.872;5.306;2023-04-20T04:14:07;101541.44;;;6.33;49.24
25238;BME280;13185;50.872;5.306;2023-04-20T04:16:34;101532.41;;;6.37;49.30
25238;BME280;13185;50.872;5.306;2023-04-20T04:19:00;101534.09;;;6.40;48.97
25238;BME280;13185;50.872;5.306;2023-04-20T04:21:26;101530.63;;;6.38;49.22
25238;BME280;13185;50.872;5.306;2023-04-20T04:23:59;101524.44;;;6.37;49.22
25238;BME280;13185;50.872;5.306;2023-04-20T04:27:00;101514.56;;;6.39;49.48
25238;BME280;13185;50.872;5.306;2023-04-20T04:29:32;101518.97;;;6.40;49.67
25238;BME280;13185;50.872;5.306;2023-04-20T04:32:04;101519.78;;;6.42;49.82
25238;BME280;13185;50.872;5.306;2023-04-20T04:34:30;101522.38;;;6.44;50.00
25238;BME280;13185;50.872;5.306;2023-04-20T04:36:58;101505.47;;;6.45;50.07
25238;BME280;13185;50.872;5.306;2023-04-20T04:39:37;101510.66;;;6.49;50.33
25238;BME280;13185;50.872;5.306;2023-04-20T04:42:11;101508.84;;;6.50;50.44
25238;BME280;13185;50.872;5.306;2023-04-20T04:44:40;101507.13;;;6.49;50.55
25238;BME280;13185;50.872;5.306;2023-04-20T04:47:07;101499.19;;;6.47;50.51
25238;BME280;13185;50.872;5.306;2023-04-20T04:49:34;101495.66;;;6.47;50.69
25238;BME280;13185;50.872;5.306;2023-04-20T04:52:00;101502.78;;;6.46;51.07
25238;BME280;13185;50.872;5.306;2023-04-20T04:54:26;101494.72;;;6.48;51.21
25238;BME280;13185;50.872;5.306;2023-04-20T04:56:51;101487.53;;;6.50;51.56
25238;BME280;13185;50.872;5.306;2023-04-20T04:59:16;101483.81;;;6.54;51.96
25238;BME280;13185;50.872;5.306;2023-04-20T05:01:42;101489.94;;;6.56;52.51
25238;BME280;13185;50.872;5.306;2023-04-20T05:04:07;101490.72;;;6.59;52.06
25238;BME280;13185;50.872;5.306;2023-04-20T05:06:33;101480.28;;;6.53;51.68
25238;BME280;13185;50.872;5.306;2023-04-20T05:08:58;101488.34;;;6.52;52.41
25238;BME280;13185;50.872;5.306;2023-04-20T05:11:24;101483.00;;;6.52;52.55
25238;BME280;13185;50.872;5.306;2023-04-20T05:13:49;101488.13;;;6.58;52.81
25238;BME280;13185;50.872;5.306;2023-04-20T05:16:15;101486.25;;;6.60;53.08
25238;BME280;13185;50.872;5.306;2023-04-20T05:18:40;101488.06;;;6.59;53.32
25238;BME280;13185;50.872;5.306;2023-04-20T05:21:05;101496.03;;;6.59;53.31
25238;BME280;13185;50.872;5.306;2023-04-20T05:23:32;101495.25;;;6.57;53.96
25238;BME280;13185;50.872;5.306;2023-04-20T05:25:58;101493.66;;;6.52;54.50
25238;BME280;13185;50.872;5.306;2023-04-20T05:28:23;101501.00;;;6.45;55.31
25238;BME280;13185;50.872;5.306;2023-04-20T05:30:48;101519.97;;;6.38;58.43
25238;BME280;13185;50.872;5.306;2023-04-20T05:33:14;101512.25;;;6.30;61.91
25238;BME280;13185;50.872;5.306;2023-04-20T05:35:40;101511.72;;;6.20;66.71
25238;BME280;13185;50.872;5.306;2023-04-20T05:38:05;101514.94;;;6.05;69.14
25238;BME280;13185;50.872;5.306;2023-04-20T05:40:32;101516.94;;;5.98;71.62
25238;BME280;13185;50.872;5.306;2023-04-20T05:43:00;101526.91;;;5.92;72.98
25238;BME280;13185;50.872;5.306;2023-04-20T05:45:25;101522.59;;;5.88;74.46
25238;BME280;13185;50.872;5.306;2023-04-20T05:47:52;101523.53;;;5.87;76.26
25238;BME280;13185;50.872;5.306;2023-04-20T05:50:18;101535.16;;;5.84;77.01
25238;BME280;13185;50.872;5.306;2023-04-20T05:52:43;101533.56;;;5.78;79.27
25238;BME280;13185;50.872;5.306;2023-04-20T05:55:09;101533.56;;;5.78;80.32
25238;BME280;13185;50.872;5.306;2023-04-20T05:57:34;101530.09;;;5.76;80.83
25238;BME280;13185;50.872;5.306;2023-04-20T06:00:11;101524.78;;;5.76;82.35
25238;BME280;13185;50.872;5.306;2023-04-20T06:02:40;101515.00;;;5.77;83.19
25238;BME280;13185;50.872;5.306;2023-04-20T06:05:06;101512.09;;;5.83;83.32
25238;BME280;13185;50.872;5.306;2023-04-20T06:07:33;101511.03;;;5.89;83.74
25238;BME280;13185;50.872;5.306;2023-04-20T06:09:59;101511.75;;;5.94;83.25
25238;BME280;13185;50.872;5.306;2023-04-20T06:12:26;101513.53;;;5.95;83.29
25238;BME280;13185;50.872;5.306;2023-04-20T06:14:52;101512.53;;;5.97;83.92
25238;BME280;13185;50.872;5.306;2023-04-20T06:17:17;101509.69;;;6.02;83.84
25238;BME280;13185;50.872;5.306;2023-04-20T06:19:43;101506.03;;;6.06;84.13
25238;BME280;13185;50.872;5.306;2023-04-20T06:22:08;101504.09;;;6.10;84.33
25238;BME280;13185;50.872;5.306;2023-04-20T06:24:34;101509.38;;;6.11;84.14
25238;BME280;13185;50.872;5.306;2023-04-20T06:27:01;101497.72;;;6.15;84.91
25238;BME280;13185;50.872;5.306;2023-04-20T06:29:27;101498.66;;;6.13;84.21
25238;BME280;13185;50.872;5.306;2023-04-20T06:31:53;101495.06;;;6.14;84.16
25238;BME280;13185;50.872;5.306;2023-04-20T06:34:18;101487.09;;;6.14;84.17
25238;BME280;13185;50.872;5.306;2023-04-20T06:36:44;101479.88;;;6.17;84.42
25238;BME280;13185;50.872;5.306;2023-04-20T06:39:09;101493.06;;;6.20;85.10
25238;BME280;13185;50.872;5.306;2023-04-20T06:41:36;101476.88;;;6.26;85.63
25238;BME280;13185;50.872;5.306;2023-04-20T06:44:04;101474.78;;;6.34;86.17
25238;BME280;13185;50.872;5.306;2023-04-20T06:46:30;101478.94;;;6.42;85.91
25238;BME280;13185;50.872;5.306;2023-04-20T06:48:56;101477.88;;;6.47;85.88
25238;BME280;13185;50.872;5.306;2023-04-20T06:51:23;101475.13;;;6.49;85.67
25238;BME280;13185;50.872;5.306;2023-04-20T06:53:49;101472.28;;;6.53;85.50
25238;BME280;13185;50.872;5.306;2023-04-20T06:56:14;101467.72;;;6.57;86.06
25238;BME280;13185;50.872;5.306;2023-04-20T06:58:39;101464.00;;;6.61;85.54
25238;BME280;13185;50.872;5.306;2023-04-20T07:01:05;101462.00;;;6.66;85.32
25238;BME280;13185;50.872;5.306;2023-04-20T07:03:31;101458.31;;;6.70;84.64
25238;BME280;13185;50.872;5.306;2023-04-20T07:05:56;101454.66;;;6.73;84.09
25238;BME280;13185;50.872;5.306;2023-04-20T07:08:22;101452.00;;;6.73;83.91
25238;BME280;13185;50.872;5.306;2023-04-20T07:10:47;101449.25;;;6.74;83.22
25238;BME280;13185;50.872;5.306;2023-04-20T07:13:13;101449.44;;;6.70;83.37
25238;BME280;13185;50.872;5.306;2023-04-20T07:15:38;101456.53;;;6.71;83.45
25238;BME280;13185;50.872;5.306;2023-04-20T07:18:03;101448.59;;;6.69;83.61
25238;BME280;13185;50.872;5.306;2023-04-20T07:20:29;101452.13;;;6.70;83.81
25238;BME280;13185;50.872;5.306;2023-04-20T07:22:55;101454.84;;;6.68;83.84
25238;BME280;13185;50.872;5.306;2023-04-20T07:25:20;101449.53;;;6.68;83.45
25238;BME280;13185;50.872;5.306;2023-04-20T07:27:47;101455.72;;;6.69;83.59
25238;BME280;13185;50.872;5.306;2023-04-20T07:30:13;101455.72;;;6.69;83.67
25238;BME280;13185;50.872;5.306;2023-04-20T07:32:39;101446.78;;;6.70;83.98
25238;BME280;13185;50.872;5.306;2023-04-20T07:35:05;101446.84;;;6.68;84.12
25238;BME280;13185;50.872;5.306;2023-04-20T07:37:32;101446.78;;;6.70;83.81
25238;BME280;13185;50.872;5.306;2023-04-20T07:39:57;101444.94;;;6.72;84.02
25238;BME280;13185;50.872;5.306;2023-04-20T07:42:23;101449.31;;;6.73;84.05
25238;BME280;13185;50.872;5.306;2023-04-20T07:44:48;101441.13;;;6.77;83.90
25238;BME280;13185;50.872;5.306;2023-04-20T07:47:14;101435.75;;;6.79;84.43
25238;BME280;13185;50.872;5.306;2023-04-20T07:49:40;101440.09;;;6.81;84.25
25238;BME280;13185;50.872;5.306;2023-04-20T07:52:06;101437.22;;;6.86;84.48
25238;BME280;13185;50.872;5.306;2023-04-20T07:54:32;101442.47;;;6.89;84.40
25238;BME280;13185;50.872;5.306;2023-04-20T07:56:58;101435.34;;;6.89;84.50
25238;BME280;13185;50.872;5.306;2023-04-20T07:59:24;101432.03;;;6.83;84.32
25238;BME280;13185;50.872;5.306;2023-04-20T08:01:50;101432.84;;;6.85;84.26
25238;BME280;13185;50.872;5.306;2023-04-20T08:04:15;101420.38;;;6.85;84.46
25238;BME280;13185;50.872;5.306;2023-04-20T08:06:41;101425.41;;;6.93;84.38
25238;BME280;13185;50.872;5.306;2023-04-20T08:09:07;101423.22;;;7.03;84.37
25238;BME280;13185;50.872;5.306;2023-04-20T08:11:32;101424.75;;;7.08;84.18
25238;BME280;13185;50.872;5.306;2023-04-20T08:13:58;101412.03;;;7.15;84.02
25238;BME280;13185;50.872;5.306;2023-04-20T08:16:24;101410.78;;;7.23;83.97
25238;BME280;13185;50.872;5.306;2023-04-20T08:18:50;101414.81;;;7.34;83.78
25238;BME280;13185;50.872;5.306;2023-04-20T08:21:15;101412.56;;;7.45;83.66
25238;BME280;13185;50.872;5.306;2023-04-20T08:23:41;101405.75;;;7.58;83.72
25238;BME280;13185;50.872;5.306;2023-04-20T08:26:13;101405.19;;;7.70;83.49
25238;BME280;13185;50.872;5.306;2023-04-20T08:28:39;101403.00;;;7.80;83.19
25238;BME280;13185;50.872;5.306;2023-04-20T08:31:04;101406.19;;;7.88;82.73
25238;BME280;13185;50.872;5.306;2023-04-20T08:33:30;101399.72;;;7.94;83.01
25238;BME280;13185;50.872;5.306;2023-04-20T08:35:56;101404.03;;;7.96;82.82
25238;BME280;13185;50.872;5.306;2023-04-20T08:38:21;101400.38;;;7.99;82.58
25238;BME280;13185;50.872;5.306;2023-04-20T08:40:48;101396.91;;;7.97;81.97
25238;BME280;13185;50.872;5.306;2023-04-20T08:43:15;101395.16;;;7.96;81.49
25238;BME280;13185;50.872;5.306;2023-04-20T08:45:42;101396.56;;;8.04;81.18
25238;BME280;13185;50.872;5.306;2023-04-20T08:48:13;101391.25;;;8.23;81.09
25238;BME280;13185;50.872;5.306;2023-04-20T08:50:41;101391.66;;;8.33;80.00
25238;BME280;13185;50.872;5.306;2023-04-20T08:53:07;101385.19;;;8.38;80.43
25238;BME280;13185;50.872;5.306;2023-04-20T08:55:34;101386.34;;;8.52;80.45
25238;BME280;13185;50.872;5.306;2023-04-20T08:57:59;101376.31;;;8.57;80.21
25238;BME280;13185;50.872;5.306;2023-04-20T09:00:25;101383.47;;;8.56;80.53
25238;BME280;13185;50.872;5.306;2023-04-20T09:02:53;101379.09;;;8.54;79.84
25238;BME280;13185;50.872;5.306;2023-04-20T09:05:27;101372.25;;;8.48;79.81
25238;BME280;13185;50.872;5.306;2023-04-20T09:08:00;101367.44;;;8.37;77.63
25238;BME280;13185;50.872;5.306;2023-04-20T09:10:38;101377.25;;;8.37;78.26
25238;BME280;13185;50.872;5.306;2023-04-20T09:13:04;101368.13;;;8.41;78.66
25238;BME280;13185;50.872;5.306;2023-04-20T09:15:30;101369.34;;;8.34;78.74
25238;BME280;13185;50.872;5.306;2023-04-20T09:17:56;101364.06;;;8.32;78.58
25238;BME280;13185;50.872;5.306;2023-04-20T09:20:40;101371.28;;;8.30;78.36
25238;BME280;13185;50.872;5.306;2023-04-20T09:23:12;101365.22;;;8.27;77.04
25238;BME280;13185;50.872;5.306;2023-04-20T09:25:38;101355.19;;;8.32;77.89
25238;BME280;13185;50.872;5.306;2023-04-20T09:28:06;101356.81;;;8.36;77.77
25238;BME280;13185;50.872;5.306;2023-04-20T09:33:09;101357.28;;;8.63;77.34
25238;BME280;13185;50.872;5.306;2023-04-20T09:35:44;101357.47;;;8.77;76.83
25238;BME280;13185;50.872;5.306;2023-04-20T09:38:15;101355.75;;;8.93;75.90
25238;BME280;13185;50.872;5.306;2023-04-20T09:40:40;101351.75;;;9.02;75.46
25238;BME280;13185;50.872;5.306;2023-04-20T09:43:12;101348.91;;;9.05;74.68
25238;BME280;13185;50.872;5.306;2023-04-20T09:45:40;101347.34;;;9.01;75.21
25238;BME280;13185;50.872;5.306;2023-04-20T09:48:07;101356.25;;;9.02;75.76
25238;BME280;13185;50.872;5.306;2023-04-20T09:50:37;101349.50;;;9.12;75.70
25238;BME280;13185;50.872;5.306;2023-04-20T09:53:05;101340.50;;;9.13;74.51
25238;BME280;13185;50.872;5.306;2023-04-20T09:55:31;101348.88;;;9.07;73.22
25238;BME280;13185;50.872;5.306;2023-04-20T09:57:57;101343.97;;;8.98;73.25
25238;BME280;13185;50.872;5.306;2023-04-20T10:00:23;101338.84;;;8.93;73.05
25238;BME280;13185;50.872;5.306;2023-04-20T10:02:50;101338.44;;;8.83;73.08
25238;BME280;13185;50.872;5.306;2023-04-20T10:05:15;101339.72;;;8.76;73.20
25238;BME280;13185;50.872;5.306;2023-04-20T10:07:41;101338.03;;;8.74;72.99
25238;BME280;13185;50.872;5.306;2023-04-20T10:10:13;101333.09;;;8.83;73.85
25238;BME280;13185;50.872;5.306;2023-04-20T10:12:49;101330.53;;;8.99;72.61
25238;BME280;13185;50.872;5.306;2023-04-20T10:15:15;101321.72;;;8.97;71.89
25238;BME280;13185;50.872;5.306;2023-04-20T10:17:41;101321.47;;;9.02;71.87
25238;BME280;13185;50.872;5.306;2023-04-20T10:20:26;101316.81;;;9.05;72.07
25238;BME280;13185;50.872;5.306;2023-04-20T10:22:53;101317.28;;;9.13;72.07
25238;BME280;13185;50.872;5.306;2023-04-20T10:25:23;101313.41;;;9.36;72.32
25238;BME280;13185;50.872;5.306;2023-04-20T10:27:57;101306.53;;;9.65;73.01
25238;BME280;13185;50.872;5.306;2023-04-20T10:30:24;101314.34;;;9.86;72.64
25238;BME280;13185;50.872;5.306;2023-04-20T10:33:11;101305.53;;;9.99;71.83
25238;BME280;13185;50.872;5.306;2023-04-20T10:35:54;101301.91;;;10.00;71.06
25238;BME280;13185;50.872;5.306;2023-04-20T10:38:32;101298.13;;;10.04;70.49
25238;BME280;13185;50.872;5.306;2023-04-20T10:41:11;101293.19;;;9.97;69.30
25238;BME280;13185;50.872;5.306;2023-04-20T10:43:37;101289.56;;;9.98;69.59
25238;BME280;13185;50.872;5.306;2023-04-20T10:46:16;101290.19;;;10.03;68.87
25238;BME280;13185;50.872;5.306;2023-04-20T10:48:55;101292.69;;;10.06;68.97
25238;BME280;13185;50.872;5.306;2023-04-20T10:51:21;101293.63;;;10.05;67.81
25238;BME280;13185;50.872;5.306;2023-04-20T10:54:06;101285.59;;;10.05;67.74
25238;BME280;13185;50.872;5.306;2023-04-20T10:56:43;101288.44;;;10.18;68.55
25238;BME280;13185;50.872;5.306;2023-04-20T10:59:13;101286.53;;;10.20;66.88
25238;BME280;13185;50.872;5.306;2023-04-20T11:01:40;101280.16;;;10.06;67.23
25238;BME280;13185;50.872;5.306;2023-04-20T11:04:09;101286.53;;;10.04;68.25
25238;BME280;13185;50.872;5.306;2023-04-20T11:06:40;101280.84;;;9.94;67.86
25238;BME280;13185;50.872;5.306;2023-04-20T11:09:16;101283.69;;;9.91;68.73
25238;BME280;13185;50.872;5.306;2023-04-20T11:11:45;101281.34;;;9.85;68.41
25238;BME280;13185;50.872;5.306;2023-04-20T11:14:21;101280.03;;;9.76;67.42
25238;BME280;13185;50.872;5.306;2023-04-20T11:16:51;101281.25;;;9.71;68.13
25238;BME280;13185;50.872;5.306;2023-04-20T11:19:33;101285.19;;;9.64;68.15
25238;BME280;13185;50.872;5.306;2023-04-20T11:22:00;101271.34;;;9.55;67.97
25238;BME280;13185;50.872;5.306;2023-04-20T11:24:28;101269.00;;;9.49;68.04
25238;BME280;13185;50.872;5.306;2023-04-20T11:26:55;101271.50;;;9.52;68.58
25238;BME280;13185;50.872;5.306;2023-04-20T11:29:36;101262.28;;;9.58;68.27
25238;BME280;13185;50.872;5.306;2023-04-20T11:32:04;101262.03;;;9.63;69.07
25238;BME280;13185;50.872;5.306;2023-04-20T11:34:31;101262.03;;;9.63;69.05
25238;BME280;13185;50.872;5.306;2023-04-20T11:37:05;101251.66;;;9.57;69.27
25238;BME280;13185;50.872;5.306;2023-04-20T11:39:31;101245.69;;;9.51;69.90
25238;BME280;13185;50.872;5.306;2023-04-20T11:41:58;101242.47;;;9.45;70.15
25238;BME280;13185;50.872;5.306;2023-04-20T11:44:24;101256.81;;;9.44;71.36
25238;BME280;13185;50.872;5.306;2023-04-20T11:46:50;101253.44;;;9.40;72.39
25238;BME280;13185;50.872;5.306;2023-04-20T11:49:21;101258.94;;;9.37;73.93
25238;BME280;13185;50.872;5.306;2023-04-20T11:51:48;101263.69;;;9.32;74.98
25238;BME280;13185;50.872;5.306;2023-04-20T11:54:14;101266.06;;;9.21;76.36
25238;BME280;13185;50.872;5.306;2023-04-20T11:56:40;101283.75;;;9.06;77.73
25238;BME280;13185;50.872;5.306;2023-04-20T11:59:10;101279.59;;;8.83;79.40
25238;BME280;13185;50.872;5.306;2023-04-20T12:01:36;101281.34;;;8.67;80.06
25238;BME280;13185;50.872;5.306;2023-04-20T12:04:03;101273.16;;;8.70;81.57
25238;BME280;13185;50.872;5.306;2023-04-20T12:06:29;101270.50;;;8.87;83.13
25238;BME280;13185;50.872;5.306;2023-04-20T12:08:56;101262.31;;;9.08;84.34
25238;BME280;13185;50.872;5.306;2023-04-20T12:11:22;101258.97;;;9.20;84.42
25238;BME280;13185;50.872;5.306;2023-04-20T12:13:48;101270.94;;;9.30;84.50
25238;BME280;13185;50.872;5.306;2023-04-20T12:16:13;101263.28;;;9.40;85.29
25238;BME280;13185;50.872;5.306;2023-04-20T12:18:39;101265.13;;;9.55;85.88
25238;BME280;13185;50.872;5.306;2023-04-20T12:21:05;101258.31;;;9.65;84.93
25238;BME280;13185;50.872;5.306;2023-04-20T12:23:31;101256.50;;;9.66;84.34
25238;BME280;13185;50.872;5.306;2023-04-20T12:25:57;101254.59;;;9.68;83.07
25238;BME280;13185;50.872;5.306;2023-04-20T12:28:23;101251.88;;;9.85;83.25
25238;BME280;13185;50.872;5.306;2023-04-20T12:30:49;101247.41;;;10.01;84.05
25238;BME280;13185;50.872;5.306;2023-04-20T12:33:14;101245.13;;;10.09;82.69
25238;BME280;13185;50.872;5.306;2023-04-20T12:35:40;101248.66;;;10.10;80.74
25238;BME280;13185;50.872;5.306;2023-04-20T12:38:06;101242.69;;;10.21;81.73
25238;BME280;13185;50.872;5.306;2023-04-20T12:40:31;101246.03;;;10.26;80.24
25238;BME280;13185;50.872;5.306;2023-04-20T12:43:00;101240.09;;;10.19;78.47
25238;BME280;13185;50.872;5.306;2023-04-20T12:45:26;101247.13;;;10.06;76.53
25238;BME280;13185;50.872;5.306;2023-04-20T12:47:51;101251.53;;;9.91;76.53
25238;BME280;13185;50.872;5.306;2023-04-20T12:50:17;101241.56;;;9.77;77.02
25238;BME280;13185;50.872;5.306;2023-04-20T12:52:42;101245.97;;;9.63;78.12
25238;BME280;13185;50.872;5.306;2023-04-20T12:55:08;101252.38;;;9.60;78.67
25238;BME280;13185;50.872;5.306;2023-04-20T12:57:34;101249.06;;;9.55;78.68
25238;BME280;13185;50.872;5.306;2023-04-20T12:59:59;101240.25;;;9.53;80.25
25238;BME280;13185;50.872;5.306;2023-04-20T13:02:27;101246.97;;;9.44;81.05
25238;BME280;13185;50.872;5.306;2023-04-20T13:04:53;101246.50;;;9.36;82.31